createdAt,value
2018-02-21T00:01:53.902Z,24.57
2018-02-21T00:04:21.415Z,25.23
2018-02-21T00:06:49.704Z,25.03
2018-02-21T00:09:17.214Z,25.33
2018-02-21T00:11:44.733Z,23.13
2018-02-21T00:14:12.908Z,25.93
2018-02-21T00:16:40.419Z,25.47
2018-02-21T00:19:07.933Z,24.60
2018-02-21T00:21:35.469Z,26.80
2018-02-21T00:24:02.988Z,26.23
2018-02-21T00:26:30.510Z,27.57
2018-02-21T00:28:58.018Z,28.67
2018-02-21T00:31:25.540Z,24.23
2018-02-21T00:33:53.072Z,27.30
2018-02-21T00:36:20.639Z,27.27
2018-02-21T00:38:48.179Z,27.40
2018-02-21T00:41:15.749Z,28.60
2018-02-21T00:43:43.314Z,28.63
2018-02-21T00:46:10.854Z,29.90
2018-02-21T00:48:38.395Z,31.27
2018-02-21T00:51:05.909Z,28.90
2018-02-21T00:53:34.228Z,28.00
2018-02-21T00:56:01.715Z,31.23
2018-02-21T00:58:29.225Z,31.70
2018-02-21T01:00:56.712Z,29.73
2018-02-21T01:03:25.056Z,29.70
2018-02-21T01:05:52.563Z,30.70
2018-02-21T01:08:20.100Z,26.67
2018-02-21T01:10:47.610Z,26.30
2018-02-21T01:13:15.111Z,27.63
2018-02-21T01:15:42.643Z,27.63
2018-02-21T01:18:10.145Z,22.67
2018-02-21T01:20:38.394Z,20.57
2018-02-21T01:23:05.929Z,20.97
2018-02-21T01:25:33.426Z,20.10
2018-02-21T01:28:02.095Z,23.77
2018-02-21T01:30:30.393Z,24.70
2018-02-21T01:32:58.756Z,25.63
2018-02-21T01:35:26.242Z,24.63
2018-02-21T01:37:53.719Z,26.10
2018-02-21T01:40:21.224Z,26.77
2018-02-21T01:42:48.961Z,29.40
2018-02-21T01:45:16.682Z,27.47
2018-02-21T01:47:44.169Z,27.73
2018-02-21T01:50:11.674Z,27.20
2018-02-21T01:52:39.397Z,26.27
2018-02-21T01:55:06.998Z,28.57
2018-02-21T01:57:34.516Z,29.40
2018-02-21T02:00:02.019Z,25.80
2018-02-21T02:02:30.323Z,27.57
2018-02-21T02:04:57.973Z,25.37
2018-02-21T02:07:25.490Z,24.83
2018-02-21T02:09:52.978Z,23.07
2018-02-21T02:12:20.454Z,26.67
2018-02-21T02:14:48.152Z,26.67
2018-02-21T02:17:15.643Z,28.90
2018-02-21T02:19:43.919Z,29.40
2018-02-21T02:22:11.497Z,29.97
2018-02-21T02:24:39.059Z,29.90
2018-02-21T02:27:06.569Z,30.30
2018-02-21T02:29:34.084Z,30.30
2018-02-21T02:32:02.238Z,32.13
2018-02-21T02:34:30.559Z,28.13
2018-02-21T02:36:58.075Z,29.97
2018-02-21T02:39:38.207Z,32.13
2018-02-21T02:42:06.516Z,31.20
2018-02-21T02:44:33.997Z,29.90
2018-02-21T02:47:01.502Z,31.60
2018-02-21T02:49:28.989Z,33.43
2018-02-21T02:51:56.509Z,32.10
2018-02-21T02:54:24.109Z,31.40
2018-02-21T02:56:51.649Z,30.90
2018-02-21T02:59:19.148Z,31.30
2018-02-21T03:01:46.647Z,30.27
2018-02-21T03:04:14.144Z,33.03
2018-02-21T03:06:41.649Z,31.30
2018-02-21T03:09:09.113Z,31.87
2018-02-21T03:11:36.607Z,33.13
2018-02-21T03:14:04.980Z,34.23
2018-02-21T03:16:33.273Z,34.63
2018-02-21T03:19:00.766Z,31.77
2018-02-21T03:21:28.359Z,34.70
2018-02-21T03:23:55.828Z,31.23
2018-02-21T03:26:24.095Z,36.20
2018-02-21T03:28:51.591Z,33.53
2018-02-21T03:31:19.109Z,31.80
2018-02-21T03:33:46.598Z,32.33
2018-02-21T03:36:14.104Z,31.13
2018-02-21T03:38:41.604Z,26.37
2018-02-21T03:41:10.129Z,27.97
2018-02-21T03:43:37.642Z,26.27
2018-02-21T03:46:05.920Z,23.07
2018-02-21T03:48:34.166Z,27.50
2018-02-21T03:51:01.693Z,32.20
2018-02-21T03:53:29.204Z,27.83
2018-02-21T03:55:57.466Z,29.10
2018-02-21T03:58:24.973Z,27.30
2018-02-21T04:00:52.489Z,23.20
2018-02-21T04:03:20.019Z,28.50
2018-02-21T04:05:47.523Z,28.20
2018-02-21T04:08:15.031Z,28.73
2018-02-21T04:10:42.526Z,25.27
2018-02-21T04:13:10.807Z,29.03
2018-02-21T04:15:39.091Z,28.67
2018-02-21T04:18:06.596Z,27.50
2018-02-21T04:20:34.151Z,31.20
2018-02-21T04:23:01.717Z,30.37
2018-02-21T04:25:29.216Z,32.20
2018-02-21T04:27:56.832Z,31.33
2018-02-21T04:30:24.399Z,30.20
2018-02-21T04:32:51.986Z,29.67
2018-02-21T04:35:20.363Z,31.37
2018-02-21T04:37:48.664Z,30.47
2018-02-21T04:40:16.225Z,30.80
2018-02-21T04:42:43.760Z,31.67
2018-02-21T04:45:11.333Z,33.00
2018-02-21T04:47:38.847Z,30.67
2018-02-21T04:50:06.420Z,31.87
2018-02-21T04:52:33.979Z,32.87
2018-02-21T04:55:04.255Z,34.27
2018-02-21T04:57:35.384Z,35.87
2018-02-21T05:00:02.896Z,33.40
2018-02-21T05:02:30.392Z,34.10
2018-02-21T05:04:57.911Z,33.35
2018-02-21T05:07:25.401Z,33.93
2018-02-21T05:09:53.658Z,33.67
2018-02-21T05:12:21.158Z,31.63
2018-02-21T05:14:48.648Z,26.73
2018-02-21T05:17:16.254Z,33.97
2018-02-21T05:19:44.528Z,30.00
2018-02-21T05:22:12.794Z,35.27
2018-02-21T05:24:41.056Z,35.30
2018-02-21T05:27:08.559Z,30.67
2018-02-21T05:29:36.064Z,35.07
2018-02-21T05:32:03.582Z,31.50
2018-02-21T05:34:31.563Z,35.93
2018-02-21T05:36:59.068Z,35.33
2018-02-21T05:39:27.352Z,35.17
2018-02-21T05:41:55.623Z,32.67
2018-02-21T05:44:23.948Z,35.10
2018-02-21T05:46:51.515Z,32.63
2018-02-21T05:49:19.094Z,33.90
2018-02-21T05:51:46.608Z,33.70
2018-02-21T05:54:14.227Z,34.05
2018-02-21T05:56:43.205Z,34.70
2018-02-21T05:59:10.968Z,34.60
2018-02-21T06:01:39.872Z,34.07
2018-02-21T06:04:07.411Z,32.97
2018-02-21T06:06:34.933Z,34.23
2018-02-21T06:09:02.433Z,32.97
2018-02-21T06:11:30.783Z,28.98
2018-02-21T06:13:58.505Z,34.72
2018-02-21T06:16:25.988Z,30.17
2018-02-21T06:18:54.699Z,27.87
2018-02-21T06:21:22.550Z,35.00
2018-02-21T06:23:50.058Z,33.10
2018-02-21T06:26:18.327Z,32.80
2018-02-21T06:28:46.042Z,35.83
2018-02-21T06:31:13.546Z,33.70
2018-02-21T06:33:41.067Z,36.00
2018-02-21T06:36:08.594Z,35.20
2018-02-21T06:38:36.106Z,31.17
2018-02-21T06:41:03.619Z,27.07
2018-02-21T06:43:31.130Z,29.50
2018-02-21T06:45:58.657Z,32.07
2018-02-21T06:48:26.139Z,26.60
2018-02-21T06:50:53.667Z,35.30
2018-02-21T06:53:21.195Z,32.45
2018-02-21T06:55:49.466Z,33.27
2018-02-21T06:58:17.725Z,34.73
2018-02-21T07:00:45.298Z,31.93
2018-02-21T07:03:13.562Z,36.07
2018-02-21T07:05:41.072Z,34.30
2018-02-21T07:08:08.558Z,35.70
2018-02-21T07:10:36.043Z,31.43
2018-02-21T07:13:04.305Z,29.35
2018-02-21T07:15:31.819Z,29.13
2018-02-21T07:17:59.307Z,32.80
2018-02-21T07:20:26.828Z,28.47
2018-02-21T07:22:54.318Z,27.00
2018-02-21T07:25:21.806Z,28.57
2018-02-21T07:27:50.121Z,31.00
2018-02-21T07:30:17.634Z,28.27
2018-02-21T07:32:45.916Z,33.83
2018-02-21T07:35:14.170Z,31.53
2018-02-21T07:37:41.678Z,32.23
2018-02-21T07:40:09.182Z,30.70
2018-02-21T07:42:36.677Z,29.37
2018-02-21T07:45:04.928Z,30.13
2018-02-21T07:47:32.443Z,32.10
2018-02-21T07:49:59.929Z,31.60
2018-02-21T07:52:27.446Z,29.80
2018-02-21T07:54:54.939Z,30.20
2018-02-21T07:57:22.455Z,28.13
2018-02-21T07:59:50.700Z,31.07
2018-02-21T08:02:18.223Z,29.90
2018-02-21T08:04:45.741Z,25.93
2018-02-21T08:07:13.528Z,29.33
2018-02-21T08:09:41.092Z,28.50
2018-02-21T08:12:08.640Z,26.27
2018-02-21T08:14:36.170Z,28.40
2018-02-21T08:17:03.745Z,29.10
2018-02-21T08:19:31.546Z,28.63
2018-02-21T08:21:59.136Z,21.47
2018-02-21T08:24:27.437Z,29.27
2018-02-21T08:26:54.988Z,27.97
2018-02-21T08:29:22.497Z,28.97
2018-02-21T08:31:50.722Z,24.10
2018-02-21T08:34:26.218Z,27.27
2018-02-21T08:39:29.927Z,27.53
2018-02-21T08:42:08.697Z,24.70
2018-02-21T08:44:36.815Z,21.60
2018-02-21T08:47:06.252Z,25.93
2018-02-21T08:49:43.896Z,24.90
2018-02-21T08:52:11.699Z,25.77
2018-02-21T08:54:39.454Z,22.47
2018-02-21T08:57:07.051Z,17.07
2018-02-21T08:59:35.330Z,25.50
2018-02-21T09:02:03.642Z,25.83
2018-02-21T09:04:31.126Z,14.80
2018-02-21T09:06:58.607Z,21.90
2018-02-21T09:09:26.120Z,18.87
2018-02-21T09:11:53.601Z,17.47
2018-02-21T09:14:21.114Z,22.27
2018-02-21T09:16:48.605Z,26.37
2018-02-21T09:19:16.109Z,14.40
2018-02-21T09:21:43.614Z,19.83
2018-02-21T09:24:11.128Z,19.90
2018-02-21T09:26:38.649Z,23.30
2018-02-21T09:29:06.193Z,20.67
2018-02-21T09:31:33.686Z,18.10
2018-02-21T09:34:01.187Z,22.30
2018-02-21T09:36:29.589Z,25.00
2018-02-21T09:38:57.201Z,20.77
2018-02-21T09:41:25.561Z,23.13
2018-02-21T09:43:53.037Z,19.80
2018-02-21T09:46:20.533Z,23.20
2018-02-21T09:48:48.812Z,23.10
2018-02-21T09:51:16.309Z,22.80
2018-02-21T09:53:43.801Z,18.03
2018-02-21T09:56:11.291Z,15.27
2018-02-21T09:58:38.854Z,22.17
2018-02-21T10:01:06.401Z,22.57
2018-02-21T10:03:33.937Z,21.23
2018-02-21T10:06:02.274Z,18.93
2018-02-21T10:08:29.801Z,15.97
2018-02-21T10:10:57.354Z,21.30
2018-02-21T10:13:24.913Z,21.07
2018-02-21T10:15:52.521Z,22.93
2018-02-21T10:18:20.023Z,18.90
2018-02-21T10:20:47.544Z,20.43
2018-02-21T10:23:15.823Z,18.20
2018-02-21T10:25:43.330Z,20.00
2018-02-21T10:28:10.823Z,21.33
2018-02-21T10:30:38.360Z,16.47
2018-02-21T10:33:05.886Z,21.27
2018-02-21T10:35:33.387Z,22.80
2018-02-21T10:38:00.941Z,22.10
2018-02-21T10:40:28.436Z,22.90
2018-02-21T10:42:56.792Z,20.50
2018-02-21T10:45:24.317Z,21.63
2018-02-21T10:47:51.796Z,21.33
2018-02-21T10:50:19.331Z,22.33
2018-02-21T10:52:46.891Z,20.53
2018-02-21T10:55:14.409Z,21.97
2018-02-21T10:57:42.689Z,21.80
2018-02-21T11:00:11.054Z,19.90
2018-02-21T11:02:38.683Z,21.87
2018-02-21T11:05:06.382Z,22.87
2018-02-21T11:07:33.933Z,21.83
2018-02-21T11:10:01.405Z,23.00
2018-02-21T11:12:29.710Z,22.67
2018-02-21T11:14:57.256Z,21.80
2018-02-21T11:17:24.778Z,21.67
2018-02-21T11:19:52.299Z,21.43
2018-02-21T11:22:19.867Z,22.10
2018-02-21T11:24:47.394Z,22.73
2018-02-21T11:27:15.048Z,23.40
2018-02-21T11:29:43.353Z,23.07
2018-02-21T11:32:10.912Z,22.03
2018-02-21T11:34:38.478Z,20.57
2018-02-21T11:37:06.026Z,22.40
2018-02-21T11:39:33.571Z,19.50
2018-02-21T11:42:01.058Z,21.90
2018-02-21T11:44:28.581Z,21.47
2018-02-21T11:46:56.865Z,19.20
2018-02-21T11:49:24.437Z,21.97
2018-02-21T11:51:52.724Z,21.07
2018-02-21T11:54:20.268Z,20.40
2018-02-21T11:56:47.830Z,20.47
2018-02-21T11:59:15.358Z,18.33
2018-02-21T12:01:43.688Z,16.97
2018-02-21T12:04:11.219Z,18.17
2018-02-21T12:06:38.725Z,18.50
2018-02-21T12:09:06.240Z,19.77
2018-02-21T12:11:33.803Z,18.30
2018-02-21T12:14:01.296Z,18.23
2018-02-21T12:16:29.901Z,16.53
2018-02-21T12:18:58.223Z,15.50
2018-02-21T12:21:25.765Z,14.20
2018-02-21T12:23:53.261Z,16.30
2018-02-21T12:26:20.892Z,17.07
2018-02-21T12:28:48.403Z,18.10
2018-02-21T12:31:15.875Z,15.80
2018-02-21T12:33:44.141Z,17.70
2018-02-21T12:36:11.614Z,17.43
2018-02-21T12:38:39.904Z,17.27
2018-02-21T12:41:13.135Z,17.17
2018-02-21T12:43:43.639Z,18.73
2018-02-21T12:46:11.295Z,18.50
2018-02-21T12:48:38.865Z,16.93
2018-02-21T12:51:06.372Z,17.10
2018-02-21T12:53:33.948Z,18.20
2018-02-21T12:56:01.477Z,14.17
2018-02-21T12:58:29.770Z,16.03
2018-02-21T13:00:57.282Z,12.87
2018-02-21T13:03:24.777Z,17.77
2018-02-21T13:05:52.352Z,16.23
2018-02-21T13:08:19.784Z,15.73
2018-02-21T13:10:47.255Z,16.13
2018-02-21T13:13:14.775Z,15.43
2018-02-21T13:15:42.274Z,15.77
2018-02-21T13:18:10.569Z,16.60
2018-02-21T13:20:38.858Z,17.37
2018-02-21T13:23:06.388Z,15.83
2018-02-21T13:25:33.894Z,18.67
2018-02-21T13:28:01.374Z,12.13
2018-02-21T13:30:28.884Z,17.00
2018-02-21T13:32:56.401Z,15.73
2018-02-21T13:35:23.933Z,14.43
2018-02-21T13:37:51.436Z,17.00
2018-02-21T13:40:19.725Z,15.57
2018-02-21T13:42:47.208Z,14.70
2018-02-21T13:45:14.729Z,8.90
2018-02-21T13:47:43.042Z,13.40
2018-02-21T13:50:11.300Z,15.00
2018-02-21T13:52:38.824Z,15.90
2018-02-21T13:55:06.364Z,15.87
2018-02-21T13:57:33.880Z,15.90
2018-02-21T14:00:01.409Z,16.00
2018-02-21T14:02:28.896Z,13.77
2018-02-21T14:04:56.556Z,15.70
2018-02-21T14:07:24.128Z,14.13
2018-02-21T14:09:51.642Z,16.13
2018-02-21T14:12:19.148Z,16.73
2018-02-21T14:14:46.664Z,15.97
2018-02-21T14:17:14.183Z,17.10
2018-02-21T14:19:41.934Z,15.30
2018-02-21T14:22:09.498Z,16.77
2018-02-21T14:24:37.025Z,16.73
2018-02-21T14:27:04.532Z,18.17
2018-02-21T14:29:32.084Z,17.90
2018-02-21T14:31:59.590Z,16.63
2018-02-21T14:34:27.133Z,17.70
2018-02-21T14:36:54.698Z,18.13
2018-02-21T14:39:22.973Z,17.70
2018-02-21T14:41:51.258Z,15.93
2018-02-21T14:44:19.514Z,16.33
2018-02-21T14:46:47.044Z,18.27
2018-02-21T14:49:14.550Z,18.33
2018-02-21T14:51:42.844Z,21.77
2018-02-21T14:54:10.349Z,13.13
2018-02-21T14:56:37.932Z,17.50
2018-02-21T14:59:05.451Z,15.70
2018-02-21T15:01:32.922Z,15.43
2018-02-21T15:04:00.471Z,16.20
2018-02-21T15:06:27.981Z,16.10
2018-02-21T15:08:56.272Z,15.90
2018-02-21T15:11:23.802Z,14.90
2018-02-21T15:13:51.370Z,16.40
2018-02-21T15:16:24.640Z,15.93
2018-02-21T15:18:52.174Z,12.80
2018-02-21T15:21:19.645Z,15.50
2018-02-21T15:23:47.187Z,13.63
2018-02-21T15:26:14.650Z,17.37
2018-02-21T15:28:42.151Z,14.53
2018-02-21T15:31:10.389Z,15.67
2018-02-21T15:33:37.895Z,13.93
2018-02-21T15:36:05.425Z,16.90
2018-02-21T15:38:32.992Z,15.73
2018-02-21T15:41:00.416Z,15.23
2018-02-21T15:43:27.921Z,14.33
2018-02-21T15:45:56.180Z,11.20
2018-02-21T15:48:24.450Z,14.93
2018-02-21T15:50:51.949Z,13.83
2018-02-21T15:53:19.595Z,15.00
2018-02-21T15:55:47.876Z,14.10
2018-02-21T15:58:15.360Z,13.80
2018-02-21T16:00:42.973Z,12.60
2018-02-21T16:03:11.338Z,12.47
2018-02-21T16:05:39.748Z,12.70
2018-02-21T16:08:07.386Z,14.30
2018-02-21T16:10:35.639Z,13.43
2018-02-21T16:13:03.151Z,14.87
2018-02-21T16:15:30.670Z,11.87
2018-02-21T16:17:58.153Z,13.93
2018-02-21T16:20:26.413Z,13.90
2018-02-21T16:22:53.903Z,13.30
2018-02-21T16:25:21.429Z,12.73
2018-02-21T16:27:48.942Z,12.33
2018-02-21T16:30:16.485Z,13.03
2018-02-21T16:32:44.001Z,13.17
2018-02-21T16:35:12.304Z,14.00
2018-02-21T16:37:48.315Z,12.97
2018-02-21T16:40:15.925Z,12.23
2018-02-21T16:42:43.486Z,14.57
2018-02-21T16:45:11.023Z,12.93
2018-02-21T16:47:39.387Z,13.13
2018-02-21T16:50:06.959Z,14.13
2018-02-21T16:52:35.232Z,13.17
2018-02-21T16:55:03.149Z,13.10
2018-02-21T16:57:30.647Z,13.00
2018-02-21T16:59:58.168Z,12.17
2018-02-21T17:02:25.676Z,14.20
2018-02-21T17:04:54.418Z,12.83
2018-02-21T17:07:21.918Z,12.17
2018-02-21T17:09:49.543Z,13.73
2018-02-21T17:12:17.017Z,12.93
2018-02-21T17:14:44.514Z,14.37
2018-02-21T17:17:12.006Z,13.83
2018-02-21T17:19:39.507Z,13.40
2018-02-21T17:22:07.853Z,12.47
2018-02-21T17:24:35.378Z,13.17
2018-02-21T17:27:03.273Z,9.07
2018-02-21T17:29:30.779Z,11.53
2018-02-21T17:31:58.691Z,13.43
2018-02-21T17:34:26.204Z,14.20
2018-02-21T17:36:55.959Z,14.10
2018-02-21T17:39:23.465Z,13.10
2018-02-21T17:41:51.709Z,14.97
2018-02-21T17:44:19.237Z,15.80
2018-02-21T17:46:46.787Z,14.80
2018-02-21T17:49:14.466Z,15.27
2018-02-21T17:51:44.541Z,13.13
2018-02-21T17:54:12.201Z,12.70
2018-02-21T17:56:41.276Z,13.83
2018-02-21T17:59:09.306Z,14.83
2018-02-21T18:01:36.888Z,16.80
2018-02-21T18:04:11.891Z,14.00
2018-02-21T18:06:40.237Z,13.80
2018-02-21T18:09:08.492Z,14.97
2018-02-21T18:11:36.012Z,15.37
2018-02-21T18:14:03.494Z,15.07
2018-02-21T18:16:31.021Z,16.77
2018-02-21T18:18:58.523Z,13.87
2018-02-21T18:21:31.836Z,14.50
2018-02-21T18:24:00.495Z,12.23
2018-02-21T18:26:28.037Z,12.30
2018-02-21T18:28:55.540Z,15.30
2018-02-21T18:31:23.525Z,15.13
2018-02-21T18:33:51.045Z,13.87
2018-02-21T18:36:18.557Z,16.20
2018-02-21T18:38:46.034Z,15.53
2018-02-21T18:41:13.596Z,14.90
2018-02-21T18:43:41.096Z,12.47
2018-02-21T18:46:09.354Z,11.43
2018-02-21T18:48:36.842Z,15.53
2018-02-21T18:51:05.117Z,15.20
2018-02-21T18:53:32.640Z,14.93
2018-02-21T18:56:00.937Z,14.40
2018-02-21T18:58:29.259Z,14.67
2018-02-21T19:00:56.752Z,15.80
2018-02-21T19:03:24.310Z,12.57
2018-02-21T19:05:51.916Z,16.20
2018-02-21T19:08:19.457Z,15.90
2018-02-21T19:10:47.285Z,15.30
2018-02-21T19:13:14.845Z,15.23
2018-02-21T19:15:43.174Z,15.93
2018-02-21T19:18:10.764Z,14.90
2018-02-21T19:20:38.280Z,14.10
2018-02-21T19:23:05.923Z,14.30
2018-02-21T19:25:33.507Z,14.60
2018-02-21T19:28:01.028Z,14.17
2018-02-21T19:30:28.581Z,15.03
2018-02-21T19:32:56.168Z,16.03
2018-02-21T19:35:24.553Z,17.10
2018-02-21T19:37:52.807Z,16.13
2018-02-21T19:40:20.314Z,15.00
2018-02-21T19:42:47.910Z,13.80
2018-02-21T19:45:15.418Z,14.80
2018-02-21T19:47:42.958Z,14.80
2018-02-21T19:50:11.366Z,16.63
2018-02-21T19:52:38.912Z,16.60
2018-02-21T19:55:06.493Z,15.67
2018-02-21T19:57:34.896Z,15.23
2018-02-21T20:00:02.915Z,14.63
2018-02-21T20:02:31.259Z,16.43
2018-02-21T20:04:58.942Z,14.43
2018-02-21T20:07:26.633Z,15.93
2018-02-21T20:09:54.164Z,16.77
2018-02-21T20:12:22.459Z,16.17
2018-02-21T20:14:52.580Z,16.27
2018-02-21T20:17:20.181Z,14.90
2018-02-21T20:19:48.710Z,14.80
2018-02-21T20:22:16.271Z,14.47
2018-02-21T20:24:44.110Z,17.53
2018-02-21T20:27:16.513Z,15.60
2018-02-21T20:29:46.019Z,16.70
2018-02-21T20:32:13.628Z,16.00
2018-02-21T20:34:41.192Z,15.83
2018-02-21T20:37:09.369Z,12.30
2018-02-21T20:39:36.952Z,12.53
2018-02-21T20:42:06.064Z,11.30
2018-02-21T20:44:34.445Z,13.77
2018-02-21T20:47:02.828Z,12.07
2018-02-21T20:49:30.396Z,13.47
2018-02-21T20:51:57.966Z,14.90
2018-02-21T20:54:25.535Z,14.83
2018-02-21T20:56:54.047Z,11.53
2018-02-21T20:59:21.596Z,16.33
2018-02-21T21:01:50.792Z,12.63
2018-02-21T21:04:18.366Z,12.67
2018-02-21T21:06:45.878Z,8.80
2018-02-21T21:09:13.501Z,13.77
2018-02-21T21:11:41.101Z,10.07
2018-02-21T21:14:09.216Z,14.07
2018-02-21T21:16:37.582Z,12.07
2018-02-21T21:19:05.144Z,14.37
2018-02-21T21:21:32.667Z,9.70
2018-02-21T21:24:01.130Z,14.07
2018-02-21T21:26:28.682Z,13.13
2018-02-21T21:28:56.172Z,11.90
2018-02-21T21:31:23.826Z,8.83
2018-02-21T21:33:51.607Z,12.60
2018-02-21T21:36:19.134Z,9.23
2018-02-21T21:38:46.684Z,12.40
2018-02-21T21:41:14.222Z,13.33
2018-02-21T21:43:42.552Z,10.63
2018-02-21T21:46:10.087Z,10.13
2018-02-21T21:48:37.982Z,11.57
2018-02-21T21:51:05.544Z,8.53
2018-02-21T21:53:33.096Z,10.83
2018-02-21T21:56:01.397Z,13.47
2018-02-21T21:58:28.903Z,10.73
2018-02-21T22:00:56.449Z,14.60
2018-02-21T22:03:24.055Z,11.40
2018-02-21T22:05:51.655Z,15.43
2018-02-21T22:08:19.161Z,12.60
2018-02-21T22:10:46.915Z,13.40
2018-02-21T22:13:14.466Z,11.53
2018-02-21T22:15:42.580Z,14.40
2018-02-21T22:18:11.465Z,15.53
2018-02-21T22:20:39.001Z,10.43
2018-02-21T22:23:06.563Z,14.57
2018-02-21T22:25:34.073Z,13.77
2018-02-21T22:28:02.378Z,17.37
2018-02-21T22:30:29.921Z,11.83
2018-02-21T22:32:58.192Z,13.90
2018-02-21T22:35:26.467Z,12.77
2018-02-21T22:37:54.738Z,18.87
2018-02-21T22:40:22.259Z,15.30
2018-02-21T22:42:49.758Z,11.80
2018-02-21T22:45:18.061Z,20.03
2018-02-21T22:47:45.587Z,19.73
2018-02-21T22:50:13.885Z,19.40
2018-02-21T22:52:42.177Z,17.63
2018-02-21T22:55:09.656Z,19.63
2018-02-21T22:57:37.217Z,19.70
2018-02-21T23:00:04.888Z,18.40
2018-02-21T23:02:32.385Z,20.67
2018-02-21T23:05:00.650Z,17.13
2018-02-21T23:07:28.963Z,19.17
2018-02-21T23:09:56.499Z,22.90
2018-02-21T23:12:24.805Z,19.87
2018-02-21T23:14:52.296Z,20.50
2018-02-21T23:17:20.255Z,20.20
2018-02-21T23:19:47.826Z,21.37
2018-02-21T23:22:15.663Z,23.37
2018-02-21T23:24:43.145Z,24.57
2018-02-21T23:27:11.426Z,20.23
2018-02-21T23:29:38.982Z,20.95
2018-02-21T23:32:06.521Z,20.52
2018-02-21T23:34:34.057Z,23.80
2018-02-21T23:37:01.799Z,20.93
2018-02-21T23:39:29.308Z,24.98
2018-02-21T23:41:56.841Z,23.00
2018-02-21T23:44:25.564Z,21.53
2018-02-21T23:46:53.091Z,24.40
2018-02-21T23:49:20.581Z,23.12
2018-02-21T23:51:48.849Z,24.70
2018-02-21T23:54:16.388Z,25.73
2018-02-21T23:56:43.874Z,21.58
2018-02-21T23:59:11.409Z,22.90
